sensor_id;sensor_type;location;lat;lon;timestamp;P1;durP1;ratioP1;P2;durP2;ratioP2
2934;SDS011;2462;51.456;7.248;2023-04-21T00:01:12;8.33;;;7.20;;
2934;SDS011;2462;51.456;7.248;2023-04-21T00:03:38;9.17;;;7.67;;
2934;SDS011;2462;51.456;7.248;2023-04-21T00:06:05;9.23;;;8.23;;
2934;SDS011;2462;51.456;7.248;2023-04-21T00:08:31;8.90;;;7.60;;
2934;SDS011;2462;51.456;7.248;2023-04-21T00:10:57;8.90;;;8.00;;
2934;SDS011;2462;51.456;7.248;2023-04-21T00:13:22;9.60;;;8.60;;
2934;SDS011;2462;51.456;7.248;2023-04-21T00:15:48;8.07;;;7.13;;
2934;SDS011;2462;51.456;7.248;2023-04-21T00:18:14;10.13;;;8.70;;
2934;SDS011;2462;51.456;7.248;2023-04-21T00:20:40;9.47;;;8.00;;
2934;SDS011;2462;51.456;7.248;2023-04-21T00:23:06;9.80;;;8.80;;
2934;SDS011;2462;51.456;7.248;2023-04-21T00:25:34;9.40;;;8.40;;
2934;SDS011;2462;51.456;7.248;2023-04-21T00:28:00;9.63;;;8.60;;
2934;SDS011;2462;51.456;7.248;2023-04-21T00:30:26;9.07;;;7.73;;
2934;SDS011;2462;51.456;7.248;2023-04-21T00:32:51;11.03;;;9.30;;
2934;SDS011;2462;51.456;7.248;2023-04-21T00:35:17;9.10;;;8.17;;
2934;SDS011;2462;51.456;7.248;2023-04-21T00:37:42;9.30;;;8.27;;
2934;SDS011;2462;51.456;7.248;2023-04-21T00:40:08;9.97;;;8.63;;
2934;SDS011;2462;51.456;7.248;2023-04-21T00:42:34;9.93;;;8.87;;
2934;SDS011;2462;51.456;7.248;2023-04-21T00:45:00;9.50;;;7.93;;
2934;SDS011;2462;51.456;7.248;2023-04-21T00:47:25;12.07;;;9.73;;
2934;SDS011;2462;51.456;7.248;2023-04-21T00:49:51;11.53;;;9.43;;
2934;SDS011;2462;51.456;7.248;2023-04-21T00:52:17;9.23;;;8.10;;
2934;SDS011;2462;51.456;7.248;2023-04-21T00:54:43;9.73;;;8.73;;
2934;SDS011;2462;51.456;7.248;2023-04-21T00:57:11;11.93;;;9.20;;
2934;SDS011;2462;51.456;7.248;2023-04-21T00:59:37;9.20;;;8.30;;
2934;SDS011;2462;51.456;7.248;2023-04-21T01:02:03;10.80;;;9.47;;
2934;SDS011;2462;51.456;7.248;2023-04-21T01:04:28;12.77;;;9.27;;
2934;SDS011;2462;51.456;7.248;2023-04-21T01:06:59;11.03;;;8.60;;
2934;SDS011;2462;51.456;7.248;2023-04-21T01:09:25;10.70;;;9.60;;
2934;SDS011;2462;51.456;7.248;2023-04-21T01:12:07;11.17;;;9.93;;
2934;SDS011;2462;51.456;7.248;2023-04-21T01:14:37;10.37;;;9.23;;
2934;SDS011;2462;51.456;7.248;2023-04-21T01:17:04;10.23;;;8.90;;
2934;SDS011;2462;51.456;7.248;2023-04-21T01:19:32;9.63;;;8.43;;
2934;SDS011;2462;51.456;7.248;2023-04-21T01:22:00;11.57;;;9.27;;
2934;SDS011;2462;51.456;7.248;2023-04-21T01:24:40;12.33;;;9.63;;
2934;SDS011;2462;51.456;7.248;2023-04-21T01:27:12;10.63;;;9.53;;
2934;SDS011;2462;51.456;7.248;2023-04-21T01:29:40;10.53;;;9.23;;
2934;SDS011;2462;51.456;7.248;2023-04-21T01:32:08;10.40;;;9.10;;
2934;SDS011;2462;51.456;7.248;2023-04-21T01:34:35;11.50;;;9.47;;
2934;SDS011;2462;51.456;7.248;2023-04-21T01:37:01;11.50;;;9.00;;
2934;SDS011;2462;51.456;7.248;2023-04-21T01:39:27;11.07;;;9.20;;
2934;SDS011;2462;51.456;7.248;2023-04-21T01:41:53;11.53;;;10.07;;
2934;SDS011;2462;51.456;7.248;2023-04-21T01:44:21;11.60;;;9.77;;
2934;SDS011;2462;51.456;7.248;2023-04-21T01:46:48;13.23;;;10.50;;
2934;SDS011;2462;51.456;7.248;2023-04-21T01:49:14;13.53;;;11.37;;
2934;SDS011;2462;51.456;7.248;2023-04-21T01:51:39;11.73;;;8.57;;
2934;SDS011;2462;51.456;7.248;2023-04-21T01:54:05;11.97;;;9.67;;
2934;SDS011;2462;51.456;7.248;2023-04-21T01:56:30;10.97;;;9.03;;
2934;SDS011;2462;51.456;7.248;2023-04-21T01:58:56;12.23;;;9.83;;
2934;SDS011;2462;51.456;7.248;2023-04-21T02:01:21;11.17;;;9.30;;
2934;SDS011;2462;51.456;7.248;2023-04-21T02:03:47;12.27;;;9.43;;
2934;SDS011;2462;51.456;7.248;2023-04-21T02:06:12;10.27;;;9.13;;
2934;SDS011;2462;51.456;7.248;2023-04-21T02:08:38;13.70;;;10.90;;
2934;SDS011;2462;51.456;7.248;2023-04-21T02:11:04;12.37;;;10.50;;
2934;SDS011;2462;51.456;7.248;2023-04-21T02:13:29;12.77;;;9.27;;
2934;SDS011;2462;51.456;7.248;2023-04-21T02:15:55;11.63;;;9.80;;
2934;SDS011;2462;51.456;7.248;2023-04-21T02:18:21;11.47;;;10.03;;
2934;SDS011;2462;51.456;7.248;2023-04-21T02:20:46;12.17;;;9.30;;
2934;SDS011;2462;51.456;7.248;2023-04-21T02:23:12;11.60;;;9.83;;
2934;SDS011;2462;51.456;7.248;2023-04-21T02:25:38;11.90;;;10.07;;
2934;SDS011;2462;51.456;7.248;2023-04-21T02:28:03;12.17;;;10.07;;
2934;SDS011;2462;51.456;7.248;2023-04-21T02:30:29;13.40;;;11.40;;
2934;SDS011;2462;51.456;7.248;2023-04-21T02:32:54;13.37;;;10.00;;
2934;SDS011;2462;51.456;7.248;2023-04-21T02:35:20;14.80;;;9.67;;
2934;SDS011;2462;51.456;7.248;2023-04-21T02:37:45;12.53;;;10.10;;
2934;SDS011;2462;51.456;7.248;2023-04-21T02:40:11;11.53;;;9.77;;
2934;SDS011;2462;51.456;7.248;2023-04-21T02:42:37;12.33;;;11.10;;
2934;SDS011;2462;51.456;7.248;2023-04-21T02:45:02;14.23;;;11.23;;
2934;SDS011;2462;51.456;7.248;2023-04-21T02:47:28;13.17;;;10.23;;
2934;SDS011;2462;51.456;7.248;2023-04-21T02:49:53;12.67;;;10.00;;
2934;SDS011;2462;51.456;7.248;2023-04-21T02:52:19;11.90;;;10.50;;
2934;SDS011;2462;51.456;7.248;2023-04-21T02:54:44;11.60;;;10.40;;
2934;SDS011;2462;51.456;7.248;2023-04-21T02:57:10;12.23;;;10.47;;
2934;SDS011;2462;51.456;7.248;2023-04-21T02:59:35;10.53;;;9.47;;
2934;SDS011;2462;51.456;7.248;2023-04-21T03:02:01;13.40;;;10.50;;
2934;SDS011;2462;51.456;7.248;2023-04-21T03:04:27;13.87;;;10.70;;
2934;SDS011;2462;51.456;7.248;2023-04-21T03:06:53;15.23;;;12.00;;
2934;SDS011;2462;51.456;7.248;2023-04-21T03:09:19;12.57;;;10.87;;
2934;SDS011;2462;51.456;7.248;2023-04-21T03:11:45;14.60;;;10.70;;
2934;SDS011;2462;51.456;7.248;2023-04-21T03:14:10;11.10;;;9.63;;
2934;SDS011;2462;51.456;7.248;2023-04-21T03:16:36;13.70;;;10.43;;
2934;SDS011;2462;51.456;7.248;2023-04-21T03:19:01;13.60;;;11.13;;
2934;SDS011;2462;51.456;7.248;2023-04-21T03:21:27;16.47;;;10.43;;
2934;SDS011;2462;51.456;7.248;2023-04-21T03:23:52;13.33;;;10.03;;
2934;SDS011;2462;51.456;7.248;2023-04-21T03:26:18;12.83;;;9.83;;
2934;SDS011;2462;51.456;7.248;2023-04-21T03:28:43;15.20;;;10.20;;
2934;SDS011;2462;51.456;7.248;2023-04-21T03:31:09;14.67;;;11.53;;
2934;SDS011;2462;51.456;7.248;2023-04-21T03:33:34;12.77;;;10.70;;
2934;SDS011;2462;51.456;7.248;2023-04-21T03:36:00;12.10;;;10.43;;
2934;SDS011;2462;51.456;7.248;2023-04-21T03:38:27;13.60;;;11.10;;
2934;SDS011;2462;51.456;7.248;2023-04-21T03:40:53;14.23;;;10.90;;
2934;SDS011;2462;51.456;7.248;2023-04-21T03:43:18;12.80;;;10.57;;
2934;SDS011;2462;51.456;7.248;2023-04-21T03:45:44;15.13;;;11.87;;
2934;SDS011;2462;51.456;7.248;2023-04-21T03:48:09;14.00;;;11.80;;
2934;SDS011;2462;51.456;7.248;2023-04-21T03:50:35;14.80;;;12.57;;
2934;SDS011;2462;51.456;7.248;2023-04-21T03:53:01;13.10;;;11.00;;
2934;SDS011;2462;51.456;7.248;2023-04-21T03:55:27;14.20;;;11.17;;
2934;SDS011;2462;51.456;7.248;2023-04-21T03:57:52;15.10;;;12.60;;
2934;SDS011;2462;51.456;7.248;2023-04-21T04:00:18;15.13;;;11.67;;
2934;SDS011;2462;51.456;7.248;2023-04-21T04:02:45;14.97;;;11.53;;
2934;SDS011;2462;51.456;7.248;2023-04-21T04:05:10;14.27;;;11.30;;
2934;SDS011;2462;51.456;7.248;2023-04-21T04:07:36;15.30;;;11.53;;
2934;SDS011;2462;51.456;7.248;2023-04-21T04:10:02;13.27;;;11.17;;
2934;SDS011;2462;51.456;7.248;2023-04-21T04:12:27;13.23;;;10.93;;
2934;SDS011;2462;51.456;7.248;2023-04-21T04:14:53;13.07;;;10.53;;
2934;SDS011;2462;51.456;7.248;2023-04-21T04:17:18;13.03;;;11.23;;
2934;SDS011;2462;51.456;7.248;2023-04-21T04:19:44;13.43;;;12.03;;
2934;SDS011;2462;51.456;7.248;2023-04-21T04:22:09;14.97;;;11.67;;
2934;SDS011;2462;51.456;7.248;2023-04-21T04:24:35;15.30;;;11.13;;
2934;SDS011;2462;51.456;7.248;2023-04-21T04:27:00;12.50;;;11.07;;
2934;SDS011;2462;51.456;7.248;2023-04-21T04:29:27;15.03;;;11.47;;
2934;SDS011;2462;51.456;7.248;2023-04-21T04:31:53;18.40;;;12.93;;
2934;SDS011;2462;51.456;7.248;2023-04-21T04:34:18;16.30;;;11.87;;
2934;SDS011;2462;51.456;7.248;2023-04-21T04:36:44;13.47;;;11.50;;
2934;SDS011;2462;51.456;7.248;2023-04-21T04:39:11;13.07;;;11.47;;
2934;SDS011;2462;51.456;7.248;2023-04-21T04:41:37;17.30;;;13.60;;
2934;SDS011;2462;51.456;7.248;2023-04-21T04:44:03;14.13;;;10.90;;
2934;SDS011;2462;51.456;7.248;2023-04-21T04:46:32;16.80;;;11.60;;
2934;SDS011;2462;51.456;7.248;2023-04-21T04:49:01;15.57;;;11.90;;
2934;SDS011;2462;51.456;7.248;2023-04-21T04:51:26;13.50;;;11.00;;
2934;SDS011;2462;51.456;7.248;2023-04-21T04:53:52;14.53;;;11.70;;
2934;SDS011;2462;51.456;7.248;2023-04-21T04:56:18;15.50;;;12.23;;
2934;SDS011;2462;51.456;7.248;2023-04-21T04:58:43;15.30;;;11.23;;
2934;SDS011;2462;51.456;7.248;2023-04-21T05:01:12;16.30;;;12.70;;
2934;SDS011;2462;51.456;7.248;2023-04-21T05:03:41;15.07;;;12.27;;
2934;SDS011;2462;51.456;7.248;2023-04-21T05:06:08;15.43;;;11.90;;
2934;SDS011;2462;51.456;7.248;2023-04-21T05:08:34;16.57;;;12.33;;
2934;SDS011;2462;51.456;7.248;2023-04-21T05:11:00;15.10;;;13.50;;
2934;SDS011;2462;51.456;7.248;2023-04-21T05:13:26;16.27;;;13.10;;
2934;SDS011;2462;51.456;7.248;2023-04-21T05:15:58;18.10;;;14.27;;
2934;SDS011;2462;51.456;7.248;2023-04-21T05:18:26;18.87;;;12.77;;
2934;SDS011;2462;51.456;7.248;2023-04-21T05:20:52;14.10;;;12.50;;
2934;SDS011;2462;51.456;7.248;2023-04-21T05:23:17;15.83;;;12.73;;
2934;SDS011;2462;51.456;7.248;2023-04-21T05:25:43;16.23;;;12.80;;
2934;SDS011;2462;51.456;7.248;2023-04-21T05:28:08;15.33;;;11.80;;
2934;SDS011;2462;51.456;7.248;2023-04-21T05:30:34;15.13;;;12.47;;
2934;SDS011;2462;51.456;7.248;2023-04-21T05:32:59;14.43;;;11.53;;
2934;SDS011;2462;51.456;7.248;2023-04-21T05:35:25;17.60;;;12.33;;
2934;SDS011;2462;51.456;7.248;2023-04-21T05:37:50;15.40;;;11.97;;
2934;SDS011;2462;51.456;7.248;2023-04-21T05:40:16;16.07;;;12.43;;
2934;SDS011;2462;51.456;7.248;2023-04-21T05:42:41;16.10;;;12.40;;
2934;SDS011;2462;51.456;7.248;2023-04-21T05:45:07;16.00;;;12.43;;
2934;SDS011;2462;51.456;7.248;2023-04-21T05:47:33;15.93;;;12.50;;
2934;SDS011;2462;51.456;7.248;2023-04-21T05:49:58;14.60;;;11.90;;
2934;SDS011;2462;51.456;7.248;2023-04-21T05:52:23;16.53;;;12.57;;
2934;SDS011;2462;51.456;7.248;2023-04-21T05:54:49;17.00;;;13.57;;
2934;SDS011;2462;51.456;7.248;2023-04-21T05:57:15;17.70;;;13.90;;
2934;SDS011;2462;51.456;7.248;2023-04-21T05:59:41;15.47;;;12.63;;
2934;SDS011;2462;51.456;7.248;2023-04-21T06:02:07;16.20;;;12.23;;
2934;SDS011;2462;51.456;7.248;2023-04-21T06:04:33;17.40;;;13.77;;
2934;SDS011;2462;51.456;7.248;2023-04-21T06:07:03;17.17;;;13.97;;
2934;SDS011;2462;51.456;7.248;2023-04-21T06:09:30;17.50;;;13.60;;
2934;SDS011;2462;51.456;7.248;2023-04-21T06:11:56;18.67;;;14.30;;
2934;SDS011;2462;51.456;7.248;2023-04-21T06:14:21;16.40;;;13.37;;
2934;SDS011;2462;51.456;7.248;2023-04-21T06:16:47;17.50;;;13.07;;
2934;SDS011;2462;51.456;7.248;2023-04-21T06:19:12;16.77;;;13.10;;
2934;SDS011;2462;51.456;7.248;2023-04-21T06:21:38;16.83;;;13.20;;
2934;SDS011;2462;51.456;7.248;2023-04-21T06:24:03;12.20;;;10.57;;
2934;SDS011;2462;51.456;7.248;2023-04-21T06:26:29;12.27;;;7.90;;
2934;SDS011;2462;51.456;7.248;2023-04-21T06:28:55;10.85;;;7.90;;
2934;SDS011;2462;51.456;7.248;2023-04-21T06:31:20;11.90;;;8.90;;
2934;SDS011;2462;51.456;7.248;2023-04-21T06:33:46;12.93;;;8.63;;
2934;SDS011;2462;51.456;7.248;2023-04-21T06:36:11;10.73;;;8.20;;
2934;SDS011;2462;51.456;7.248;2023-04-21T06:38:36;11.40;;;8.63;;
2934;SDS011;2462;51.456;7.248;2023-04-21T06:41:03;10.70;;;7.87;;
2934;SDS011;2462;51.456;7.248;2023-04-21T06:43:31;9.97;;;7.53;;
2934;SDS011;2462;51.456;7.248;2023-04-21T06:45:56;9.13;;;7.97;;
2934;SDS011;2462;51.456;7.248;2023-04-21T06:48:22;10.60;;;8.77;;
2934;SDS011;2462;51.456;7.248;2023-04-21T06:50:48;10.50;;;8.80;;
2934;SDS011;2462;51.456;7.248;2023-04-21T06:53:14;11.93;;;9.10;;
2934;SDS011;2462;51.456;7.248;2023-04-21T06:55:42;12.60;;;9.77;;
2934;SDS011;2462;51.456;7.248;2023-04-21T06:58:07;10.53;;;8.70;;
2934;SDS011;2462;51.456;7.248;2023-04-21T07:00:33;9.97;;;8.70;;
2934;SDS011;2462;51.456;7.248;2023-04-21T07:02:58;9.33;;;8.07;;
2934;SDS011;2462;51.456;7.248;2023-04-21T07:05:24;12.20;;;8.90;;
2934;SDS011;2462;51.456;7.248;2023-04-21T07:07:49;13.93;;;10.57;;
2934;SDS011;2462;51.456;7.248;2023-04-21T07:10:15;12.17;;;9.43;;
2934;SDS011;2462;51.456;7.248;2023-04-21T07:12:43;12.23;;;8.77;;
2934;SDS011;2462;51.456;7.248;2023-04-21T07:15:10;11.43;;;9.43;;
2934;SDS011;2462;51.456;7.248;2023-04-21T07:17:36;13.07;;;10.20;;
2934;SDS011;2462;51.456;7.248;2023-04-21T07:20:01;12.90;;;10.20;;
2934;SDS011;2462;51.456;7.248;2023-04-21T07:22:27;13.43;;;10.23;;
2934;SDS011;2462;51.456;7.248;2023-04-21T07:24:53;13.90;;;9.37;;
2934;SDS011;2462;51.456;7.248;2023-04-21T07:27:18;13.57;;;9.73;;
2934;SDS011;2462;51.456;7.248;2023-04-21T07:29:44;11.97;;;8.97;;
2934;SDS011;2462;51.456;7.248;2023-04-21T07:32:09;12.77;;;10.00;;
2934;SDS011;2462;51.456;7.248;2023-04-21T07:34:35;14.23;;;10.00;;
2934;SDS011;2462;51.456;7.248;2023-04-21T07:37:00;11.90;;;10.23;;
2934;SDS011;2462;51.456;7.248;2023-04-21T07:39:26;13.10;;;10.60;;
2934;SDS011;2462;51.456;7.248;2023-04-21T07:41:51;10.77;;;8.80;;
2934;SDS011;2462;51.456;7.248;2023-04-21T07:44:17;12.83;;;10.70;;
2934;SDS011;2462;51.456;7.248;2023-04-21T07:46:43;12.63;;;10.47;;
2934;SDS011;2462;51.456;7.248;2023-04-21T07:49:09;15.23;;;10.67;;
2934;SDS011;2462;51.456;7.248;2023-04-21T07:51:34;14.07;;;11.00;;
2934;SDS011;2462;51.456;7.248;2023-04-21T07:54:00;14.50;;;11.43;;
2934;SDS011;2462;51.456;7.248;2023-04-21T07:56:26;12.90;;;10.80;;
2934;SDS011;2462;51.456;7.248;2023-04-21T07:58:51;14.93;;;11.30;;
2934;SDS011;2462;51.456;7.248;2023-04-21T08:01:17;15.50;;;12.00;;
2934;SDS011;2462;51.456;7.248;2023-04-21T08:03:42;14.03;;;10.80;;
2934;SDS011;2462;51.456;7.248;2023-04-21T08:06:08;12.70;;;11.07;;
2934;SDS011;2462;51.456;7.248;2023-04-21T08:08:33;11.40;;;10.20;;
2934;SDS011;2462;51.456;7.248;2023-04-21T08:10:59;14.57;;;12.30;;
2934;SDS011;2462;51.456;7.248;2023-04-21T08:13:25;13.60;;;11.47;;
2934;SDS011;2462;51.456;7.248;2023-04-21T08:15:51;13.93;;;11.17;;
2934;SDS011;2462;51.456;7.248;2023-04-21T08:18:16;13.67;;;11.60;;
2934;SDS011;2462;51.456;7.248;2023-04-21T08:20:43;13.20;;;11.80;;
2934;SDS011;2462;51.456;7.248;2023-04-21T08:23:09;13.93;;;12.43;;
2934;SDS011;2462;51.456;7.248;2023-04-21T08:25:34;14.70;;;12.37;;
2934;SDS011;2462;51.456;7.248;2023-04-21T08:28:00;13.00;;;10.47;;
2934;SDS011;2462;51.456;7.248;2023-04-21T08:30:28;13.40;;;12.00;;
2934;SDS011;2462;51.456;7.248;2023-04-21T08:32:54;15.90;;;11.40;;
2934;SDS011;2462;51.456;7.248;2023-04-21T08:35:19;14.40;;;12.13;;
2934;SDS011;2462;51.456;7.248;2023-04-21T08:37:45;14.50;;;12.33;;
2934;SDS011;2462;51.456;7.248;2023-04-21T08:40:11;14.83;;;12.17;;
2934;SDS011;2462;51.456;7.248;2023-04-21T08:42:39;16.50;;;13.00;;
2934;SDS011;2462;51.456;7.248;2023-04-21T08:45:05;14.57;;;10.97;;
2934;SDS011;2462;51.456;7.248;2023-04-21T08:47:32;14.40;;;12.70;;
2934;SDS011;2462;51.456;7.248;2023-04-21T08:49:58;14.63;;;12.47;;
2934;SDS011;2462;51.456;7.248;2023-04-21T08:52:23;15.00;;;11.60;;
2934;SDS011;2462;51.456;7.248;2023-04-21T08:54:49;12.93;;;11.23;;
2934;SDS011;2462;51.456;7.248;2023-04-21T08:57:17;14.83;;;12.17;;
2934;SDS011;2462;51.456;7.248;2023-04-21T08:59:43;13.77;;;12.00;;
2934;SDS011;2462;51.456;7.248;2023-04-21T09:02:16;18.10;;;13.10;;
2934;SDS011;2462;51.456;7.248;2023-04-21T09:04:46;19.57;;;15.83;;
2934;SDS011;2462;51.456;7.248;2023-04-21T09:10:21;19.60;;;13.10;;
2934;SDS011;2462;51.456;7.248;2023-04-21T09:12:51;17.70;;;13.33;;
2934;SDS011;2462;51.456;7.248;2023-04-21T09:15:19;16.07;;;13.70;;
2934;SDS011;2462;51.456;7.248;2023-04-21T09:17:46;15.30;;;13.10;;
2934;SDS011;2462;51.456;7.248;2023-04-21T09:20:16;16.33;;;13.47;;
2934;SDS011;2462;51.456;7.248;2023-04-21T09:22:43;17.70;;;13.80;;
2934;SDS011;2462;51.456;7.248;2023-04-21T09:25:11;19.17;;;17.17;;
2934;SDS011;2462;51.456;7.248;2023-04-21T09:27:40;28.47;;;16.43;;
2934;SDS011;2462;51.456;7.248;2023-04-21T09:30:06;26.53;;;16.87;;
2934;SDS011;2462;51.456;7.248;2023-04-21T09:32:36;22.50;;;16.13;;
2934;SDS011;2462;51.456;7.248;2023-04-21T09:35:03;20.97;;;15.10;;
2934;SDS011;2462;51.456;7.248;2023-04-21T09:37:31;18.30;;;14.23;;
2934;SDS011;2462;51.456;7.248;2023-04-21T09:39:58;24.47;;;15.90;;
2934;SDS011;2462;51.456;7.248;2023-04-21T09:42:27;19.60;;;16.00;;
2934;SDS011;2462;51.456;7.248;2023-04-21T09:44:53;17.83;;;15.00;;
2934;SDS011;2462;51.456;7.248;2023-04-21T09:47:19;16.33;;;14.53;;
2934;SDS011;2462;51.456;7.248;2023-04-21T09:49:46;19.67;;;16.07;;
2934;SDS011;2462;51.456;7.248;2023-04-21T09:52:15;21.70;;;16.40;;
2934;SDS011;2462;51.456;7.248;2023-04-21T09:54:44;18.73;;;15.07;;
2934;SDS011;2462;51.456;7.248;2023-04-21T09:57:20;16.23;;;14.53;;
2934;SDS011;2462;51.456;7.248;2023-04-21T09:59:47;16.57;;;14.53;;
2934;SDS011;2462;51.456;7.248;2023-04-21T10:02:14;19.57;;;15.10;;
2934;SDS011;2462;51.456;7.248;2023-04-21T10:04:42;17.93;;;14.23;;
2934;SDS011;2462;51.456;7.248;2023-04-21T10:07:08;18.40;;;15.47;;
2934;SDS011;2462;51.456;7.248;2023-04-21T10:09:53;16.53;;;13.13;;
2934;SDS011;2462;51.456;7.248;2023-04-21T10:12:22;27.73;;;15.63;;
2934;SDS011;2462;51.456;7.248;2023-04-21T10:14:49;25.83;;;14.97;;
2934;SDS011;2462;51.456;7.248;2023-04-21T10:17:20;19.00;;;12.90;;
2934;SDS011;2462;51.456;7.248;2023-04-21T10:19:55;20.57;;;13.53;;
2934;SDS011;2462;51.456;7.248;2023-04-21T10:22:31;18.20;;;12.70;;
2934;SDS011;2462;51.456;7.248;2023-04-21T10:24:59;24.40;;;12.87;;
2934;SDS011;2462;51.456;7.248;2023-04-21T10:27:35;19.50;;;12.90;;
2934;SDS011;2462;51.456;7.248;2023-04-21T10:30:17;23.23;;;14.60;;
2934;SDS011;2462;51.456;7.248;2023-04-21T10:32:44;17.37;;;13.73;;
2934;SDS011;2462;51.456;7.248;2023-04-21T10:35:14;17.80;;;14.57;;
2934;SDS011;2462;51.456;7.248;2023-04-21T10:37:41;19.77;;;13.53;;
2934;SDS011;2462;51.456;7.248;2023-04-21T10:40:31;17.73;;;13.00;;
2934;SDS011;2462;51.456;7.248;2023-04-21T10:42:59;14.90;;;12.97;;
2934;SDS011;2462;51.456;7.248;2023-04-21T10:45:26;14.07;;;11.10;;
2934;SDS011;2462;51.456;7.248;2023-04-21T10:47:52;13.27;;;11.43;;
2934;SDS011;2462;51.456;7.248;2023-04-21T10:50:19;18.03;;;13.33;;
2934;SDS011;2462;51.456;7.248;2023-04-21T10:52:54;17.03;;;12.37;;
2934;SDS011;2462;51.456;7.248;2023-04-21T10:55:20;21.17;;;11.30;;
2934;SDS011;2462;51.456;7.248;2023-04-21T10:57:46;18.53;;;11.93;;
2934;SDS011;2462;51.456;7.248;2023-04-21T11:00:19;14.03;;;10.90;;
2934;SDS011;2462;51.456;7.248;2023-04-21T11:02:57;15.90;;;12.60;;
2934;SDS011;2462;51.456;7.248;2023-04-21T11:05:28;18.10;;;12.00;;
2934;SDS011;2462;51.456;7.248;2023-04-21T11:08:01;18.13;;;14.00;;
2934;SDS011;2462;51.456;7.248;2023-04-21T11:10:27;16.00;;;12.37;;
2934;SDS011;2462;51.456;7.248;2023-04-21T11:12:53;17.10;;;13.47;;
2934;SDS011;2462;51.456;7.248;2023-04-21T11:15:21;18.27;;;13.00;;
2934;SDS011;2462;51.456;7.248;2023-04-21T11:17:47;18.13;;;14.17;;
2934;SDS011;2462;51.456;7.248;2023-04-21T11:20:13;17.57;;;12.43;;
2934;SDS011;2462;51.456;7.248;2023-04-21T11:22:39;17.70;;;12.63;;
2934;SDS011;2462;51.456;7.248;2023-04-21T11:25:05;21.27;;;13.20;;
2934;SDS011;2462;51.456;7.248;2023-04-21T11:27:41;22.43;;;13.50;;
2934;SDS011;2462;51.456;7.248;2023-04-21T11:30:07;19.90;;;13.63;;
2934;SDS011;2462;51.456;7.248;2023-04-21T11:32:33;19.83;;;13.67;;
2934;SDS011;2462;51.456;7.248;2023-04-21T11:34:59;18.30;;;13.70;;
2934;SDS011;2462;51.456;7.248;2023-04-21T11:37:25;15.30;;;12.50;;
2934;SDS011;2462;51.456;7.248;2023-04-21T11:39:58;14.93;;;11.30;;
2934;SDS011;2462;51.456;7.248;2023-04-21T11:42:25;12.80;;;11.07;;
2934;SDS011;2462;51.456;7.248;2023-04-21T11:44:52;14.30;;;11.50;;
2934;SDS011;2462;51.456;7.248;2023-04-21T11:47:20;18.53;;;11.03;;
2934;SDS011;2462;51.456;7.248;2023-04-21T11:49:47;13.77;;;11.27;;
2934;SDS011;2462;51.456;7.248;2023-04-21T11:52:19;17.60;;;11.77;;
2934;SDS011;2462;51.456;7.248;2023-04-21T11:54:45;15.70;;;11.00;;
2934;SDS011;2462;51.456;7.248;2023-04-21T11:57:11;12.27;;;11.00;;
2934;SDS011;2462;51.456;7.248;2023-04-21T11:59:37;14.53;;;10.60;;
2934;SDS011;2462;51.456;7.248;2023-04-21T12:02:03;13.17;;;10.43;;
2934;SDS011;2462;51.456;7.248;2023-04-21T12:04:29;16.03;;;11.00;;
2934;SDS011;2462;51.456;7.248;2023-04-21T12:06:59;13.23;;;11.27;;
2934;SDS011;2462;51.456;7.248;2023-04-21T12:09:26;14.20;;;12.13;;
2934;SDS011;2462;51.456;7.248;2023-04-21T12:11:52;12.47;;;10.57;;
2934;SDS011;2462;51.456;7.248;2023-04-21T12:14:20;15.10;;;11.80;;
2934;SDS011;2462;51.456;7.248;2023-04-21T12:16:53;12.50;;;10.93;;
2934;SDS011;2462;51.456;7.248;2023-04-21T12:19:53;13.13;;;10.77;;
2934;SDS011;2462;51.456;7.248;2023-04-21T12:22:13;17.53;;;11.50;;
2934;SDS011;2462;51.456;7.248;2023-04-21T12:24:39;13.33;;;11.53;;
2934;SDS011;2462;51.456;7.248;2023-04-21T12:27:06;12.80;;;10.80;;
2934;SDS011;2462;51.456;7.248;2023-04-21T12:29:32;12.67;;;10.03;;
2934;SDS011;2462;51.456;7.248;2023-04-21T12:32:05;14.93;;;11.30;;
2934;SDS011;2462;51.456;7.248;2023-04-21T12:34:31;12.13;;;10.50;;
2934;SDS011;2462;51.456;7.248;2023-04-21T12:36:57;12.90;;;11.03;;
2934;SDS011;2462;51.456;7.248;2023-04-21T12:39:23;12.87;;;11.07;;
2934;SDS011;2462;51.456;7.248;2023-04-21T12:41:49;13.50;;;12.10;;
2934;SDS011;2462;51.456;7.248;2023-04-21T12:44:16;13.10;;;11.70;;
2934;SDS011;2462;51.456;7.248;2023-04-21T12:46:42;18.40;;;11.00;;
2934;SDS011;2462;51.456;7.248;2023-04-21T12:49:08;11.93;;;10.73;;
2934;SDS011;2462;51.456;7.248;2023-04-21T12:51:35;15.43;;;11.80;;
2934;SDS011;2462;51.456;7.248;2023-04-21T12:54:01;15.73;;;11.27;;
2934;SDS011;2462;51.456;7.248;2023-04-21T12:56:27;13.27;;;10.90;;
2934;SDS011;2462;51.456;7.248;2023-04-21T12:58:53;12.53;;;10.73;;
2934;SDS011;2462;51.456;7.248;2023-04-21T13:01:20;12.57;;;11.27;;
2934;SDS011;2462;51.456;7.248;2023-04-21T13:03:46;13.70;;;11.33;;
2934;SDS011;2462;51.456;7.248;2023-04-21T13:06:12;13.10;;;11.73;;
2934;SDS011;2462;51.456;7.248;2023-04-21T13:08:38;12.70;;;11.03;;
2934;SDS011;2462;51.456;7.248;2023-04-21T13:11:04;14.70;;;10.63;;
2934;SDS011;2462;51.456;7.248;2023-04-21T13:13:30;12.40;;;11.00;;
2934;SDS011;2462;51.456;7.248;2023-04-21T13:15:56;12.63;;;10.40;;
2934;SDS011;2462;51.456;7.248;2023-04-21T13:18:22;16.83;;;11.80;;
2934;SDS011;2462;51.456;7.248;2023-04-21T13:20:48;12.67;;;11.37;;
2934;SDS011;2462;51.456;7.248;2023-04-21T13:23:14;12.23;;;10.93;;
2934;SDS011;2462;51.456;7.248;2023-04-21T13:25:40;15.80;;;11.50;;
2934;SDS011;2462;51.456;7.248;2023-04-21T13:28:08;13.63;;;10.47;;
2934;SDS011;2462;51.456;7.248;2023-04-21T13:30:34;11.80;;;10.60;;
2934;SDS011;2462;51.456;7.248;2023-04-21T13:33:00;10.43;;;9.33;;
2934;SDS011;2462;51.456;7.248;2023-04-21T13:35:26;12.57;;;10.00;;
2934;SDS011;2462;51.456;7.248;2023-04-21T13:37:52;12.17;;;9.07;;
2934;SDS011;2462;51.456;7.248;2023-04-21T13:40:21;13.53;;;9.13;;
2934;SDS011;2462;51.456;7.248;2023-04-21T13:42:50;15.10;;;9.57;;
2934;SDS011;2462;51.456;7.248;2023-04-21T13:45:16;18.47;;;11.80;;
2934;SDS011;2462;51.456;7.248;2023-04-21T13:47:41;13.83;;;10.60;;
2934;SDS011;2462;51.456;7.248;2023-04-21T13:50:07;10.00;;;8.90;;
2934;SDS011;2462;51.456;7.248;2023-04-21T13:52:33;16.50;;;10.27;;
2934;SDS011;2462;51.456;7.248;2023-04-21T13:55:00;17.47;;;10.47;;
2934;SDS011;2462;51.456;7.248;2023-04-21T13:57:26;15.13;;;10.13;;
2934;SDS011;2462;51.456;7.248;2023-04-21T13:59:51;16.63;;;9.67;;
2934;SDS011;2462;51.456;7.248;2023-04-21T14:02:18;17.57;;;10.07;;
2934;SDS011;2462;51.456;7.248;2023-04-21T14:04:46;20.67;;;9.80;;
2934;SDS011;2462;51.456;7.248;2023-04-21T14:07:12;10.50;;;9.00;;
2934;SDS011;2462;51.456;7.248;2023-04-21T14:09:41;10.83;;;8.70;;
2934;SDS011;2462;51.456;7.248;2023-04-21T14:12:07;14.10;;;8.87;;
2934;SDS011;2462;51.456;7.248;2023-04-21T14:14:34;12.97;;;9.17;;
2934;SDS011;2462;51.456;7.248;2023-04-21T14:16:59;13.77;;;9.10;;
2934;SDS011;2462;51.456;7.248;2023-04-21T14:19:25;12.27;;;9.20;;
2934;SDS011;2462;51.456;7.248;2023-04-21T14:21:51;12.40;;;8.97;;
2934;SDS011;2462;51.456;7.248;2023-04-21T14:24:16;14.00;;;9.33;;
2934;SDS011;2462;51.456;7.248;2023-04-21T14:26:42;12.50;;;9.87;;
2934;SDS011;2462;51.456;7.248;2023-04-21T14:29:07;31.90;;;11.40;;
2934;SDS011;2462;51.456;7.248;2023-04-21T14:31:33;11.83;;;8.30;;
2934;SDS011;2462;51.456;7.248;2023-04-21T14:33:58;17.63;;;12.10;;
2934;SDS011;2462;51.456;7.248;2023-04-21T14:36:24;13.23;;;11.80;;
2934;SDS011;2462;51.456;7.248;2023-04-21T14:38:51;17.00;;;12.20;;
2934;SDS011;2462;51.456;7.248;2023-04-21T14:41:17;13.10;;;11.77;;
2934;SDS011;2462;51.456;7.248;2023-04-21T14:43:42;13.07;;;11.77;;
2934;SDS011;2462;51.456;7.248;2023-04-21T14:46:08;13.50;;;11.70;;
2934;SDS011;2462;51.456;7.248;2023-04-21T14:48:34;15.63;;;11.10;;
2934;SDS011;2462;51.456;7.248;2023-04-21T14:50:59;13.57;;;10.53;;
2934;SDS011;2462;51.456;7.248;2023-04-21T14:53:25;13.30;;;11.90;;